Time;durP1;ratioP1;P1;durP2;ratioP2;P2;SDS_P1;SDS_P2;PMS_P1;PMS_P2;Temp;Humidity;BMP_temperature;BMP_pressure;BME280_temperature;BME280_humidity;BME280_pressure;Samples;Min_cycle;Max_cycle;Signal;HPM_P1;HPM_P2
2023/06/22 00:00:44;;;;;;;7.38;6.45;;;;;;;;;;2056118;28;20497;-88
2023/06/22 00:01:44;;;;;;;7.65;6.38;;;;;;;;;;2056099;28;20085;-89
2023/06/22 00:02:45;;;;;;;8.50;6.88;;;;;;;;;;2055947;28;20026;-89
2023/06/22 00:03:45;;;;;;;10.70;7.35;;;;;;;;;;2055877;28;20027;-89
2023/06/22 00:04:46;;;;;;;8.50;6.90;;;;;;;;;;2056777;28;20023;-89
2023/06/22 00:05:47;;;;;;;7.78;6.80;;;;;;;;;;2056330;28;20457;-89
2023/06/22 00:06:48;;;;;;;8.07;6.20;;;;;;;;;;2056410;28;20121;-89
2023/06/22 00:07:50;;;;;;;8.00;6.85;;;;;;;;;;2057299;28;20027;-90
2023/06/22 00:08:51;;;;;;;7.55;6.70;;;;;;;;;;2057228;28;20399;-89
2023/06/22 00:09:51;;;;;;;8.57;6.57;;;;;;;;;;2057646;28;20077;-89
2023/06/22 00:10:51;;;;;;;7.68;6.93;;;;;;;;;;2056323;28;20018;-90
2023/06/22 00:11:52;;;;;;;7.13;6.43;;;;;;;;;;2056136;28;20112;-90
2023/06/22 00:12:52;;;;;;;7.32;6.40;;;;;;;;;;2055922;28;20029;-89
2023/06/22 00:13:53;;;;;;;8.40;7.03;;;;;;;;;;2047939;29;20055;-89
2023/06/22 00:14:53;;;;;;;9.10;6.32;;;;;;;;;;2048447;29;20547;-88
2023/06/22 00:15:54;;;;;;;9.00;6.65;;;;;;;;;;2057364;28;20433;-89
2023/06/22 00:16:58;;;;;;;7.88;6.88;;;;;;;;;;2057664;28;20081;-89
2023/06/22 00:17:59;;;;;;;7.47;6.53;;;;;;;;;;2057485;28;20019;-90
2023/06/22 00:19:01;;;;;;;7.82;6.78;;;;;;;;;;2056961;28;20466;-89
2023/06/22 00:20:05;;;;;;;11.27;7.10;;;;;;;;;;2048068;28;20023;-90
2023/06/22 00:21:06;;;;;;;9.50;6.43;;;;;;;;;;2058897;28;20102;-89
2023/06/22 00:22:06;;;;;;;9.57;6.07;;;;;;;;;;2058268;28;20081;-91
2023/06/22 00:23:09;;;;;;;7.80;7.00;;;;;;;;;;2056020;28;20069;-90
2023/06/22 00:24:10;;;;;;;7.45;6.00;;;;;;;;;;2056187;28;20053;-90
2023/06/22 00:25:10;;;;;;;7.32;6.03;;;;;;;;;;2055993;28;20027;-89
2023/06/22 00:26:11;;;;;;;7.15;6.25;;;;;;;;;;2056913;28;20058;-90
2023/06/22 00:27:11;;;;;;;7.10;6.05;;;;;;;;;;2056877;28;20440;-90
2023/06/22 00:28:12;;;;;;;9.82;6.22;;;;;;;;;;2055852;28;20055;-90
2023/06/22 00:29:12;;;;;;;7.65;6.70;;;;;;;;;;2056089;28;20431;-89
2023/06/22 00:30:13;;;;;;;7.10;6.40;;;;;;;;;;2056493;28;20085;-90
2023/06/22 00:31:13;;;;;;;8.30;6.82;;;;;;;;;;2055929;28;20510;-90
2023/06/22 00:32:14;;;;;;;7.22;6.15;;;;;;;;;;2055876;28;20038;-89
2023/06/22 00:33:15;;;;;;;8.45;6.32;;;;;;;;;;2056086;28;20026;-89
2023/06/22 00:34:16;;;;;;;8.50;6.63;;;;;;;;;;2055769;28;20022;-90
2023/06/22 00:35:16;;;;;;;8.43;6.55;;;;;;;;;;2056118;28;20030;-90
2023/06/22 00:36:18;;;;;;;7.07;6.38;;;;;;;;;;2055846;28;20132;-89
2023/06/22 00:37:19;;;;;;;8.15;6.78;;;;;;;;;;2055988;28;20057;-89
2023/06/22 00:38:19;;;;;;;7.50;6.55;;;;;;;;;;2056050;28;20490;-89
2023/06/22 00:39:20;;;;;;;7.30;6.20;;;;;;;;;;2055824;28;20101;-90
2023/06/22 00:40:21;;;;;;;7.60;6.75;;;;;;;;;;2055740;28;20026;-89
2023/06/22 00:41:22;;;;;;;7.97;6.45;;;;;;;;;;2055970;28;20029;-89
2023/06/22 00:42:22;;;;;;;8.05;6.30;;;;;;;;;;2056588;28;20481;-89
2023/06/22 00:43:23;;;;;;;8.73;6.18;;;;;;;;;;2056713;28;20031;-89
2023/06/22 00:44:24;;;;;;;8.95;6.28;;;;;;;;;;2055817;28;20050;-90
2023/06/22 00:45:25;;;;;;;6.93;6.10;;;;;;;;;;2055895;28;20078;-89
2023/06/22 00:46:25;;;;;;;8.02;7.10;;;;;;;;;;2047707;29;20020;-89
2023/06/22 00:47:27;;;;;;;7.72;6.07;;;;;;;;;;2047792;29;20094;-89
2023/06/22 00:48:27;;;;;;;8.18;6.45;;;;;;;;;;2047924;28;20023;-89
2023/06/22 00:49:28;;;;;;;9.25;6.57;;;;;;;;;;2055922;28;20018;-89
2023/06/22 00:50:33;;;;;;;9.90;6.82;;;;;;;;;;2055548;28;20019;-90
2023/06/22 00:51:33;;;;;;;7.75;5.72;;;;;;;;;;2055878;28;20058;-89
2023/06/22 00:52:35;;;;;;;11.13;6.32;;;;;;;;;;2055691;28;20026;-89
2023/06/22 00:53:36;;;;;;;8.90;6.70;;;;;;;;;;2047753;28;20023;-90
2023/06/22 00:54:37;;;;;;;7.82;6.70;;;;;;;;;;2047726;28;20054;-89
2023/06/22 00:55:43;;;;;;;7.97;6.47;;;;;;;;;;2055674;28;20110;-89
2023/06/22 00:56:43;;;;;;;6.97;6.10;;;;;;;;;;2048536;28;20066;-89
2023/06/22 00:57:47;;;;;;;8.52;7.00;;;;;;;;;;2047698;29;20019;-90
2023/06/22 00:58:52;;;;;;;7.85;6.68;;;;;;;;;;2055774;28;20094;-89
2023/06/22 00:59:53;;;;;;;7.63;6.40;;;;;;;;;;2056374;28;20034;-89
2023/06/22 01:00:54;;;;;;;7.53;6.70;;;;;;;;;;2056257;28;20062;-90
2023/06/22 01:01:55;;;;;;;9.45;7.18;;;;;;;;;;2056234;28;20015;-90
2023/06/22 01:02:55;;;;;;;8.18;7.25;;;;;;;;;;2055743;28;20015;-90
2023/06/22 01:03:57;;;;;;;7.70;6.88;;;;;;;;;;2047589;29;20015;-89
2023/06/22 01:04:57;;;;;;;8.93;6.57;;;;;;;;;;2055850;28;20511;-90
2023/06/22 01:06:08;;;;;;;11.50;7.35;;;;;;;;;;2056351;28;20015;-89
2023/06/22 01:07:31;;;;;;;9.63;6.97;;;;;;;;;;2056182;28;20038;-90
2023/06/22 01:08:42;;;;;;;9.75;7.50;;;;;;;;;;2055682;28;20412;-89
2023/06/22 01:09:57;;;;;;;11.15;7.78;;;;;;;;;;2061576;28;20050;-88
2023/06/22 01:11:05;;;;;;;12.23;7.95;;;;;;;;;;2055755;28;20019;-90
2023/06/22 01:12:08;;;;;;;9.25;7.82;;;;;;;;;;2055787;28;20050;-90
2023/06/22 01:13:25;;;;;;;11.18;7.75;;;;;;;;;;2056409;28;20033;-90
2023/06/22 01:14:37;;;;;;;10.68;8.27;;;;;;;;;;2055807;28;20035;-89
2023/06/22 01:15:46;;;;;;;10.07;7.97;;;;;;;;;;2055797;28;20023;-90
2023/06/22 01:16:48;;;;;;;9.07;7.53;;;;;;;;;;2055870;28;20459;-90
2023/06/22 01:17:50;;;;;;;10.13;7.55;;;;;;;;;;2055717;28;20023;-89
2023/06/22 01:18:54;;;;;;;13.80;8.27;;;;;;;;;;2055560;28;20095;-90
2023/06/22 01:19:55;;;;;;;9.40;8.05;;;;;;;;;;2055450;28;20061;-89
2023/06/22 01:20:57;;;;;;;9.55;7.65;;;;;;;;;;2055694;28;20030;-89
2023/06/22 01:22:00;;;;;;;9.32;7.75;;;;;;;;;;2048178;28;20019;-89
2023/06/22 01:23:38;;;;;;;9.45;7.70;;;;;;;;;;2047585;28;20047;-90
2023/06/22 01:24:44;;;;;;;10.15;7.47;;;;;;;;;;2055776;28;20039;-90
2023/06/22 01:25:53;;;;;;;8.57;7.68;;;;;;;;;;2048363;28;20122;-89
2023/06/22 01:27:13;;;;;;;8.75;7.28;;;;;;;;;;2048506;28;20044;-90
2023/06/22 01:28:20;;;;;;;9.38;7.28;;;;;;;;;;2055426;28;20070;-90
2023/06/22 01:29:22;;;;;;;11.68;8.05;;;;;;;;;;2055626;28;20026;-90
2023/06/22 01:30:26;;;;;;;10.75;7.60;;;;;;;;;;2047550;28;20031;-89
2023/06/22 01:31:29;;;;;;;9.63;7.75;;;;;;;;;;2055548;28;20034;-90
2023/06/22 01:32:34;;;;;;;9.15;7.55;;;;;;;;;;2047855;28;20104;-90
2023/06/22 01:33:39;;;;;;;9.88;8.43;;;;;;;;;;2048303;28;20042;-90
2023/06/22 01:34:40;;;;;;;10.73;8.00;;;;;;;;;;2063094;28;20260;-89
2023/06/22 01:35:42;;;;;;;10.77;7.65;;;;;;;;;;2064636;28;20034;-89
2023/06/22 01:36:43;;;;;;;11.07;7.97;;;;;;;;;;2065480;28;20011;-89
2023/06/22 01:37:44;;;;;;;11.68;7.97;;;;;;;;;;2066225;28;20082;-89
2023/06/22 01:38:45;;;;;;;10.85;7.47;;;;;;;;;;2065222;28;20042;-90
2023/06/22 01:39:46;;;;;;;10.48;8.18;;;;;;;;;;2058481;28;20025;-90
2023/06/22 01:40:46;;;;;;;11.23;8.38;;;;;;;;;;2055961;28;20025;-89
2023/06/22 01:41:48;;;;;;;9.70;7.90;;;;;;;;;;2055508;28;20076;-89
2023/06/22 01:42:50;;;;;;;9.30;7.75;;;;;;;;;;2047801;28;20159;-89
2023/06/22 01:43:51;;;;;;;11.02;7.82;;;;;;;;;;2047419;28;20026;-90
2023/06/22 01:44:53;;;;;;;10.25;8.02;;;;;;;;;;2055240;28;20410;-89
2023/06/22 01:45:55;;;;;;;10.13;8.52;;;;;;;;;;2055473;28;20046;-90
2023/06/22 01:46:56;;;;;;;11.40;8.38;;;;;;;;;;2047257;28;20038;-90
2023/06/22 01:47:57;;;;;;;9.15;7.97;;;;;;;;;;2055080;28;20089;-89
2023/06/22 01:48:58;;;;;;;11.57;8.00;;;;;;;;;;2055491;28;20045;-89
2023/06/22 01:49:58;;;;;;;10.35;7.82;;;;;;;;;;2055178;28;20098;-89
2023/06/22 01:50:59;;;;;;;13.13;8.23;;;;;;;;;;2047157;29;20046;-89
2023/06/22 01:51:59;;;;;;;12.25;8.48;;;;;;;;;;2055515;28;20457;-90
2023/06/22 01:53:00;;;;;;;8.95;7.93;;;;;;;;;;2063962;28;20026;-89
2023/06/22 01:54:01;;;;;;;9.38;8.07;;;;;;;;;;2066327;28;20019;-89
2023/06/22 01:55:02;;;;;;;11.75;7.95;;;;;;;;;;2066162;28;20011;-89
2023/06/22 01:56:04;;;;;;;10.13;7.97;;;;;;;;;;2065500;28;20035;-89
2023/06/22 01:57:04;;;;;;;12.63;8.35;;;;;;;;;;2064166;28;20058;-89
2023/06/22 01:58:05;;;;;;;9.52;8.13;;;;;;;;;;2061738;28;20027;-88
2023/06/22 01:59:25;;;;;;;9.27;7.65;;;;;;;;;;2056899;28;20428;-89
2023/06/22 02:00:31;;;;;;;11.73;8.75;;;;;;;;;;2056210;28;20106;-89
2023/06/22 02:01:41;;;;;;;13.23;9.15;;;;;;;;;;2056243;28;20688;-88
2023/06/22 02:02:47;;;;;;;9.43;7.88;;;;;;;;;;2057022;28;20054;-89
2023/06/22 02:04:01;;;;;;;9.38;8.30;;;;;;;;;;2057035;28;20023;-90
2023/06/22 02:05:16;;;;;;;10.15;8.73;;;;;;;;;;2055519;28;20073;-90
2023/06/22 02:06:24;;;;;;;11.43;8.85;;;;;;;;;;2055731;28;20525;-89
2023/06/22 02:07:37;;;;;;;11.18;8.80;;;;;;;;;;2048414;28;20099;-90
2023/06/22 02:08:46;;;;;;;11.88;8.50;;;;;;;;;;2055297;28;20038;-90
2023/06/22 02:09:51;;;;;;;11.82;9.35;;;;;;;;;;2055565;28;20054;-90
2023/06/22 02:10:53;;;;;;;12.32;8.98;;;;;;;;;;2055524;28;20018;-89
2023/06/22 02:11:56;;;;;;;12.98;9.02;;;;;;;;;;2055245;28;20110;-90
2023/06/22 02:12:58;;;;;;;11.23;9.00;;;;;;;;;;2047752;28;20395;-89
2023/06/22 02:13:59;;;;;;;11.38;9.02;;;;;;;;;;2055325;28;20438;-89
2023/06/22 02:15:00;;;;;;;12.15;9.52;;;;;;;;;;2055229;28;20054;-90
2023/06/22 02:16:01;;;;;;;11.65;9.25;;;;;;;;;;2047075;28;20093;-90
2023/06/22 02:17:02;;;;;;;12.07;8.48;;;;;;;;;;2047236;28;20042;-90
2023/06/22 02:18:03;;;;;;;12.18;9.48;;;;;;;;;;2055226;28;20549;-90
2023/06/22 02:19:18;;;;;;;14.67;9.38;;;;;;;;;;2028246;28;11118138;-91
2023/06/22 02:20:18;;;;;;;12.57;9.30;;;;;;;;;;2049050;28;20462;-90
2023/06/22 02:21:20;;;;;;;15.20;8.85;;;;;;;;;;2046953;29;20079;-89
2023/06/22 02:22:20;;;;;;;16.52;10.02;;;;;;;;;;2046944;28;20426;-90
2023/06/22 02:23:20;;;;;;;12.48;9.27;;;;;;;;;;2055250;28;20027;-89
2023/06/22 02:24:23;;;;;;;12.13;8.75;;;;;;;;;;2055070;28;20129;-89
2023/06/22 02:25:23;;;;;;;13.48;9.82;;;;;;;;;;2055055;28;20054;-89
2023/06/22 02:26:24;;;;;;;10.35;8.95;;;;;;;;;;2055016;28;20455;-89
2023/06/22 02:27:25;;;;;;;11.85;9.25;;;;;;;;;;2054923;28;20077;-89
2023/06/22 02:28:25;;;;;;;12.40;9.10;;;;;;;;;;2054521;28;20027;-89
2023/06/22 02:29:27;;;;;;;13.13;9.18;;;;;;;;;;2054723;28;20059;-88
2023/06/22 02:30:27;;;;;;;15.73;9.90;;;;;;;;;;2054828;28;20065;-89
2023/06/22 02:31:30;;;;;;;13.48;10.45;;;;;;;;;;2055039;28;20122;-90
2023/06/22 02:32:30;;;;;;;13.13;9.70;;;;;;;;;;2054675;28;20545;-89
2023/06/22 02:33:32;;;;;;;14.85;9.95;;;;;;;;;;2047040;28;20019;-89
2023/06/22 02:34:33;;;;;;;13.38;9.40;;;;;;;;;;2046822;29;20051;-88
2023/06/22 02:35:35;;;;;;;13.25;9.75;;;;;;;;;;2047002;28;20023;-89
2023/06/22 02:36:35;;;;;;;13.60;9.75;;;;;;;;;;2046828;28;20127;-89
2023/06/22 02:37:41;;;;;;;11.52;9.68;;;;;;;;;;2046834;29;20030;-89
2023/06/22 02:38:47;;;;;;;14.10;10.23;;;;;;;;;;2057621;28;20085;-89
2023/06/22 02:39:48;;;;;;;13.68;10.32;;;;;;;;;;2054990;28;20426;-89
2023/06/22 02:40:48;;;;;;;14.02;10.15;;;;;;;;;;2055035;28;20023;-89
2023/06/22 02:41:52;;;;;;;14.18;10.30;;;;;;;;;;2054804;28;20026;-89
2023/06/22 02:42:53;;;;;;;12.48;10.02;;;;;;;;;;2055101;28;20033;-89
2023/06/22 02:43:53;;;;;;;15.57;9.82;;;;;;;;;;2054841;28;20015;-89
2023/06/22 02:44:54;;;;;;;11.88;9.73;;;;;;;;;;2046804;29;20333;-89
2023/06/22 02:45:55;;;;;;;12.88;10.15;;;;;;;;;;2046714;29;20087;-89
2023/06/22 02:46:55;;;;;;;14.13;10.05;;;;;;;;;;2051203;28;20034;-88
2023/06/22 02:47:56;;;;;;;12.63;9.85;;;;;;;;;;2055418;28;20030;-89
2023/06/22 02:48:56;;;;;;;13.98;9.93;;;;;;;;;;2054837;28;20119;-89
2023/06/22 02:49:57;;;;;;;14.25;9.90;;;;;;;;;;2055115;28;20122;-89
2023/06/22 02:50:57;;;;;;;13.85;9.70;;;;;;;;;;2055609;28;20027;-89
2023/06/22 02:51:58;;;;;;;13.57;9.68;;;;;;;;;;2054728;28;20014;-89
2023/06/22 02:52:58;;;;;;;13.00;9.82;;;;;;;;;;2056513;28;20423;-87
2023/06/22 02:53:59;;;;;;;13.63;10.45;;;;;;;;;;2063375;28;20165;-88
2023/06/22 02:54:59;;;;;;;12.57;10.05;;;;;;;;;;2063571;28;20367;-88
2023/06/22 02:56:03;;;;;;;15.63;10.07;;;;;;;;;;2061439;28;20018;-86
2023/06/22 02:57:04;;;;;;;14.80;10.18;;;;;;;;;;2060976;28;20023;-89
2023/06/22 02:58:04;;;;;;;14.60;10.00;;;;;;;;;;2055728;28;20138;-89
2023/06/22 02:59:04;;;;;;;14.85;10.57;;;;;;;;;;2054967;28;20518;-89
2023/06/22 03:00:16;;;;;;;14.98;10.00;;;;;;;;;;2051917;28;20121;-90
2023/06/22 03:01:23;;;;;;;13.90;10.10;;;;;;;;;;2048734;28;20388;-89
2023/06/22 03:02:23;;;;;;;12.73;9.73;;;;;;;;;;2057709;28;20833;-89
2023/06/22 03:03:26;;;;;;;14.82;10.18;;;;;;;;;;2055170;28;20094;-89
2023/06/22 03:04:26;;;;;;;12.55;9.48;;;;;;;;;;2055174;28;20118;-89
2023/06/22 03:05:27;;;;;;;14.25;10.52;;;;;;;;;;2055014;28;20015;-89
2023/06/22 03:06:28;;;;;;;13.45;10.30;;;;;;;;;;2055045;28;20030;-89
2023/06/22 03:07:30;;;;;;;12.93;10.50;;;;;;;;;;2055630;28;20486;-89
2023/06/22 03:08:30;;;;;;;15.85;9.80;;;;;;;;;;2055620;28;20124;-89
2023/06/22 03:09:31;;;;;;;14.50;10.27;;;;;;;;;;2057621;28;20390;-90
2023/06/22 03:10:31;;;;;;;13.00;9.88;;;;;;;;;;2055718;28;20049;-89
2023/06/22 03:11:33;;;;;;;13.52;9.63;;;;;;;;;;2055539;28;20033;-90
2023/06/22 03:12:33;;;;;;;11.48;9.07;;;;;;;;;;2054860;28;20487;-90
2023/06/22 03:13:33;;;;;;;12.90;10.25;;;;;;;;;;2054776;28;20071;-89
2023/06/22 03:14:34;;;;;;;14.90;9.23;;;;;;;;;;2054671;28;20030;-89
2023/06/22 03:15:34;;;;;;;13.43;9.55;;;;;;;;;;2054828;28;20027;-89
2023/06/22 03:16:35;;;;;;;12.88;9.43;;;;;;;;;;2054728;28;20426;-90
2023/06/22 03:17:36;;;;;;;17.92;10.70;;;;;;;;;;2046964;29;20031;-89
2023/06/22 03:18:37;;;;;;;15.75;11.00;;;;;;;;;;2054914;28;20077;-90
2023/06/22 03:19:37;;;;;;;13.23;10.52;;;;;;;;;;2054691;28;20023;-89
2023/06/22 03:20:38;;;;;;;12.40;10.20;;;;;;;;;;2046925;29;20427;-89
2023/06/22 03:21:38;;;;;;;14.85;10.02;;;;;;;;;;1696917;28;10439784;-90
2023/06/22 03:22:40;;;;;;;14.70;9.57;;;;;;;;;;2059707;28;20031;-88
2023/06/22 03:23:42;;;;;;;13.00;10.05;;;;;;;;;;2055009;28;20030;-89
2023/06/22 03:24:42;;;;;;;15.82;10.18;;;;;;;;;;2053722;28;20073;-89
2023/06/22 03:25:44;;;;;;;14.68;10.73;;;;;;;;;;2054882;28;20041;-89
2023/06/22 03:26:46;;;;;;;14.98;10.15;;;;;;;;;;2054807;28;20380;-89
2023/06/22 03:27:48;;;;;;;14.65;10.52;;;;;;;;;;2046864;28;20478;-89
2023/06/22 03:28:48;;;;;;;14.35;10.50;;;;;;;;;;2054715;28;20069;-89
2023/06/22 03:29:48;;;;;;;17.10;10.43;;;;;;;;;;2046637;29;20019;-89
2023/06/22 03:30:49;;;;;;;14.93;9.88;;;;;;;;;;2046793;29;20031;-89
2023/06/22 03:31:49;;;;;;;15.85;9.85;;;;;;;;;;2054696;28;20053;-89
2023/06/22 03:32:51;;;;;;;15.02;10.55;;;;;;;;;;2054828;28;20031;-89
2023/06/22 03:33:52;;;;;;;14.95;10.63;;;;;;;;;;2055280;28;20487;-89
2023/06/22 03:34:52;;;;;;;15.23;10.57;;;;;;;;;;2056763;28;20090;-88
2023/06/22 03:35:53;;;;;;;14.88;8.90;;;;;;;;;;2058297;28;20041;-89
2023/06/22 03:36:55;;;;;;;16.08;9.43;;;;;;;;;;2054611;28;20513;-89
2023/06/22 03:37:56;;;;;;;14.65;10.18;;;;;;;;;;2054467;28;20025;-89
2023/06/22 03:38:56;;;;;;;13.32;10.13;;;;;;;;;;1701357;28;10293049;-89
2023/06/22 03:39:56;;;;;;;11.85;9.38;;;;;;;;;;2054945;28;20105;-89
2023/06/22 03:40:57;;;;;;;14.30;10.82;;;;;;;;;;2056827;28;20031;-88
2023/06/22 03:41:57;;;;;;;15.15;9.98;;;;;;;;;;2055997;28;20033;-89
2023/06/22 03:42:58;;;;;;;16.67;9.98;;;;;;;;;;2056742;28;20031;-89
2023/06/22 03:43:58;;;;;;;13.13;9.75;;;;;;;;;;2056238;28;20043;-90
2023/06/22 03:45:00;;;;;;;14.02;10.70;;;;;;;;;;2056347;28;20742;-87
2023/06/22 03:46:01;;;;;;;14.18;9.88;;;;;;;;;;2056453;28;20035;-88
2023/06/22 03:47:02;;;;;;;13.70;10.35;;;;;;;;;;2050629;29;20038;-87
2023/06/22 03:48:03;;;;;;;12.98;9.52;;;;;;;;;;2050335;28;20472;-88
2023/06/22 03:49:04;;;;;;;14.27;9.15;;;;;;;;;;2057291;28;20050;-88
2023/06/22 03:50:06;;;;;;;14.43;9.02;;;;;;;;;;2056990;28;20479;-89
2023/06/22 03:51:06;;;;;;;11.75;9.55;;;;;;;;;;2057088;28;20027;-88
2023/06/22 03:52:07;;;;;;;12.63;8.93;;;;;;;;;;2056803;28;20099;-88
2023/06/22 03:53:08;;;;;;;11.13;8.13;;;;;;;;;;2056293;28;20113;-89
2023/06/22 03:54:08;;;;;;;13.23;9.23;;;;;;;;;;2048486;29;20139;-88
2023/06/22 03:55:08;;;;;;;13.20;9.10;;;;;;;;;;2045767;28;20482;-88
2023/06/22 03:56:09;;;;;;;12.98;9.32;;;;;;;;;;2056453;28;20038;-89
2023/06/22 03:57:11;;;;;;;13.10;8.88;;;;;;;;;;2056436;28;20054;-88
2023/06/22 03:58:12;;;;;;;10.27;8.73;;;;;;;;;;2057223;28;20035;-88
2023/06/22 03:59:12;;;;;;;12.98;9.02;;;;;;;;;;2057138;28;20027;-88
2023/06/22 04:00:13;;;;;;;11.43;8.32;;;;;;;;;;2057010;28;20624;-88
2023/06/22 04:01:14;;;;;;;11.07;8.65;;;;;;;;;;2056835;28;20036;-89
2023/06/22 04:02:14;;;;;;;13.48;8.90;;;;;;;;;;2056821;28;20408;-89
2023/06/22 04:03:15;;;;;;;14.45;9.32;;;;;;;;;;2056932;28;20085;-89
2023/06/22 04:04:17;;;;;;;13.57;9.13;;;;;;;;;;2065494;28;20050;-89
2023/06/22 04:05:19;;;;;;;10.48;8.65;;;;;;;;;;2067170;28;20015;-88
2023/06/22 04:06:19;;;;;;;11.20;9.00;;;;;;;;;;2066722;28;20014;-88
2023/06/22 04:07:19;;;;;;;14.90;8.90;;;;;;;;;;2066807;28;20099;-88
2023/06/22 04:08:20;;;;;;;11.50;8.50;;;;;;;;;;2066633;28;20021;-89
2023/06/22 04:09:21;;;;;;;15.60;10.55;;;;;;;;;;2063444;28;20051;-88
2023/06/22 04:10:22;;;;;;;11.32;9.25;;;;;;;;;;2048771;29;20027;-89
2023/06/22 04:11:22;;;;;;;13.63;9.20;;;;;;;;;;2056524;28;20113;-89
2023/06/22 04:12:22;;;;;;;10.80;8.57;;;;;;;;;;2056966;28;20097;-89
2023/06/22 04:13:24;;;;;;;11.98;8.65;;;;;;;;;;2056470;28;20038;-88
2023/06/22 04:14:25;;;;;;;15.55;9.00;;;;;;;;;;2055754;28;20027;-89
2023/06/22 04:15:25;;;;;;;10.75;8.48;;;;;;;;;;2053391;28;20579;-89
2023/06/22 04:16:25;;;;;;;11.13;8.90;;;;;;;;;;2052977;28;20058;-88
2023/06/22 04:17:26;;;;;;;11.15;8.70;;;;;;;;;;2057050;28;20450;-88
2023/06/22 04:18:26;;;;;;;10.60;8.80;;;;;;;;;;2056981;28;20058;-89
2023/06/22 04:19:27;;;;;;;11.20;9.38;;;;;;;;;;2056036;28;20026;-88
2023/06/22 04:20:27;;;;;;;11.27;9.48;;;;;;;;;;2056028;28;20106;-88
2023/06/22 04:21:29;;;;;;;15.70;9.55;;;;;;;;;;2056444;28;20041;-88
2023/06/22 04:22:29;;;;;;;15.00;9.55;;;;;;;;;;2060708;28;20045;-89
2023/06/22 04:23:30;;;;;;;14.27;9.80;;;;;;;;;;2064831;28;20051;-88
2023/06/22 04:24:30;;;;;;;14.52;9.48;;;;;;;;;;2063543;28;20046;-89
2023/06/22 04:25:31;;;;;;;11.65;9.02;;;;;;;;;;1709823;28;10282079;-88
2023/06/22 04:26:36;;;;;;;13.05;8.75;;;;;;;;;;2066507;28;20075;-89
2023/06/22 04:27:40;;;;;;;13.75;9.73;;;;;;;;;;2058158;28;20131;-89
2023/06/22 04:28:41;;;;;;;13.40;9.70;;;;;;;;;;2057125;28;20033;-89
2023/06/22 04:29:48;;;;;;;14.30;9.27;;;;;;;;;;2057038;28;20379;-89
2023/06/22 04:30:50;;;;;;;11.85;9.23;;;;;;;;;;2060214;28;20177;-88
2023/06/22 04:31:51;;;;;;;12.80;8.82;;;;;;;;;;2057462;28;20035;-88
2023/06/22 04:32:57;;;;;;;11.82;9.00;;;;;;;;;;2057066;28;20057;-88
2023/06/22 04:34:05;;;;;;;10.30;8.05;;;;;;;;;;2056625;28;20085;-90
2023/06/22 04:35:06;;;;;;;10.80;8.85;;;;;;;;;;2058947;28;20116;-88
2023/06/22 04:36:07;;;;;;;10.77;8.68;;;;;;;;;;2056910;28;20111;-89
2023/06/22 04:37:07;;;;;;;12.55;8.63;;;;;;;;;;2056018;28;20129;-89
2023/06/22 04:38:08;;;;;;;8.90;7.97;;;;;;;;;;2056613;28;20035;-89
2023/06/22 04:39:10;;;;;;;9.95;7.75;;;;;;;;;;2048590;29;20027;-89
2023/06/22 04:40:14;;;;;;;11.63;8.13;;;;;;;;;;2057093;28;20031;-88
2023/06/22 04:41:23;;;;;;;10.88;8.68;;;;;;;;;;2056712;28;20046;-89
2023/06/22 04:42:26;;;;;;;8.77;7.20;;;;;;;;;;2060341;28;20268;-89
2023/06/22 04:43:30;;;;;;;10.35;7.28;;;;;;;;;;2057081;28;20026;-88
2023/06/22 04:44:30;;;;;;;9.88;7.22;;;;;;;;;;2057078;28;20049;-88
2023/06/22 04:45:30;;;;;;;9.68;7.85;;;;;;;;;;2056769;28;20035;-88
2023/06/22 04:46:31;;;;;;;11.27;7.60;;;;;;;;;;2057197;28;20062;-89
2023/06/22 04:47:31;;;;;;;10.07;7.85;;;;;;;;;;2056499;28;20193;-88
2023/06/22 04:48:32;;;;;;;10.32;7.75;;;;;;;;;;2055648;28;20030;-89
2023/06/22 04:49:33;;;;;;;10.40;7.45;;;;;;;;;;2055820;28;20027;-88
2023/06/22 04:50:34;;;;;;;9.73;6.97;;;;;;;;;;2055546;28;20035;-89
2023/06/22 04:51:34;;;;;;;9.98;8.02;;;;;;;;;;2055031;28;20034;-89
2023/06/22 04:52:34;;;;;;;9.07;7.57;;;;;;;;;;2056331;28;20027;-89
2023/06/22 04:53:35;;;;;;;9.30;8.05;;;;;;;;;;2055696;28;20054;-89
2023/06/22 04:54:37;;;;;;;9.32;7.20;;;;;;;;;;2047756;29;20031;-89
2023/06/22 04:55:41;;;;;;;10.40;7.53;;;;;;;;;;2047561;28;20030;-89
2023/06/22 04:56:41;;;;;;;8.60;7.45;;;;;;;;;;2055534;28;20046;-90
2023/06/22 04:57:44;;;;;;;11.27;7.82;;;;;;;;;;2056415;28;20043;-89
2023/06/22 04:58:44;;;;;;;9.88;7.68;;;;;;;;;;2056239;28;20030;-89
2023/06/22 04:59:45;;;;;;;9.18;8.15;;;;;;;;;;2055376;28;20474;-90
2023/06/22 05:00:45;;;;;;;9.38;8.27;;;;;;;;;;2055891;28;20107;-88
2023/06/22 05:01:46;;;;;;;11.70;7.78;;;;;;;;;;2056357;28;20027;-89
2023/06/22 05:02:46;;;;;;;10.10;8.02;;;;;;;;;;2055700;28;20116;-90
2023/06/22 05:03:47;;;;;;;8.85;7.95;;;;;;;;;;2055821;28;20562;-89
2023/06/22 05:04:51;;;;;;;9.35;8.27;;;;;;;;;;2055734;28;20114;-90
2023/06/22 05:05:52;;;;;;;8.77;7.30;;;;;;;;;;2047834;28;20054;-87
2023/06/22 05:06:53;;;;;;;10.85;7.50;;;;;;;;;;2047477;28;20019;-90
2023/06/22 05:08:01;;;;;;;11.63;8.05;;;;;;;;;;2055650;28;20034;-87
2023/06/22 05:09:03;;;;;;;11.13;9.25;;;;;;;;;;2056214;28;20498;-89
2023/06/22 05:10:03;;;;;;;9.40;8.20;;;;;;;;;;2057099;28;20038;-89
2023/06/22 05:11:04;;;;;;;9.52;8.57;;;;;;;;;;2057646;28;20070;-88
2023/06/22 05:12:06;;;;;;;10.20;8.43;;;;;;;;;;2059714;28;20066;-88
2023/06/22 05:13:06;;;;;;;9.75;8.55;;;;;;;;;;2055902;28;20125;-90
2023/06/22 05:14:07;;;;;;;11.07;8.13;;;;;;;;;;2056253;28;20131;-89
2023/06/22 05:15:08;;;;;;;8.88;8.02;;;;;;;;;;2056041;28;20406;-89
2023/06/22 05:16:09;;;;;;;10.35;8.07;;;;;;;;;;2055558;28;20062;-89
2023/06/22 05:17:13;;;;;;;10.43;8.43;;;;;;;;;;2047604;29;20399;-89
2023/06/22 05:18:14;;;;;;;12.85;8.23;;;;;;;;;;2055422;28;20042;-89
2023/06/22 05:19:14;;;;;;;11.68;8.85;;;;;;;;;;2055512;28;20142;-89
2023/06/22 05:20:18;;;;;;;10.20;8.35;;;;;;;;;;2055462;28;20031;-90
2023/06/22 05:21:19;;;;;;;9.10;8.15;;;;;;;;;;2056267;28;20027;-89
2023/06/22 05:22:19;;;;;;;9.73;8.40;;;;;;;;;;2056140;28;20133;-90
2023/06/22 05:23:19;;;;;;;9.32;7.93;;;;;;;;;;2056128;28;20027;-89
2023/06/22 05:24:20;;;;;;;9.35;8.30;;;;;;;;;;2055273;28;20105;-90
2023/06/22 05:25:20;;;;;;;9.15;8.15;;;;;;;;;;2055423;28;20073;-89
2023/06/22 05:26:21;;;;;;;9.90;7.85;;;;;;;;;;2047476;29;20350;-90
2023/06/22 05:27:22;;;;;;;10.98;8.32;;;;;;;;;;2055645;28;20395;-89
2023/06/22 05:28:22;;;;;;;13.40;8.40;;;;;;;;;;2055571;28;20478;-90
2023/06/22 05:29:23;;;;;;;11.07;8.25;;;;;;;;;;2055593;28;20043;-89
2023/06/22 05:30:23;;;;;;;11.90;8.05;;;;;;;;;;2055751;28;20509;-89
2023/06/22 05:31:24;;;;;;;9.95;7.28;;;;;;;;;;2056533;28;20038;-89
2023/06/22 05:32:24;;;;;;;7.85;7.07;;;;;;;;;;2057409;28;20031;-87
2023/06/22 05:33:25;;;;;;;8.02;7.22;;;;;;;;;;2057612;28;20498;-89
2023/06/22 05:34:25;;;;;;;9.15;7.50;;;;;;;;;;2055843;28;20549;-90
2023/06/22 05:35:26;;;;;;;8.18;7.35;;;;;;;;;;2056268;28;20039;-88
2023/06/22 05:36:26;;;;;;;11.88;7.63;;;;;;;;;;2056287;28;20026;-90
2023/06/22 05:37:28;;;;;;;8.27;7.47;;;;;;;;;;2055960;28;20533;-89
2023/06/22 05:38:28;;;;;;;9.95;7.75;;;;;;;;;;2056066;28;20035;-89
2023/06/22 05:39:29;;;;;;;7.43;6.72;;;;;;;;;;2055314;28;20027;-90
2023/06/22 05:40:29;;;;;;;9.35;7.20;;;;;;;;;;2047425;29;20050;-90
2023/06/22 05:41:29;;;;;;;9.95;7.70;;;;;;;;;;2047297;29;20125;-89
2023/06/22 05:42:30;;;;;;;9.05;7.88;;;;;;;;;;2055585;28;20089;-89
2023/06/22 05:43:30;;;;;;;11.60;8.00;;;;;;;;;;2056202;28;20108;-89
2023/06/22 05:44:31;;;;;;;13.15;8.38;;;;;;;;;;2056299;28;20462;-89
2023/06/22 05:45:31;;;;;;;10.43;8.02;;;;;;;;;;2055168;28;20037;-89
2023/06/22 05:46:32;;;;;;;10.02;7.80;;;;;;;;;;2055447;28;20141;-89
2023/06/22 05:47:32;;;;;;;12.70;8.40;;;;;;;;;;2055249;28;20521;-89
2023/06/22 05:48:33;;;;;;;8.77;7.80;;;;;;;;;;2055083;28;20034;-89
2023/06/22 05:49:33;;;;;;;8.65;7.85;;;;;;;;;;2055433;28;20030;-90
2023/06/22 05:50:34;;;;;;;8.88;8.00;;;;;;;;;;2055303;28;20062;-90
2023/06/22 05:51:34;;;;;;;9.10;8.20;;;;;;;;;;2047020;29;20035;-90
2023/06/22 05:52:34;;;;;;;9.95;8.15;;;;;;;;;;2047332;29;20503;-90
2023/06/22 05:53:35;;;;;;;9.07;8.18;;;;;;;;;;2055624;28;20030;-90
2023/06/22 05:54:35;;;;;;;8.50;7.65;;;;;;;;;;2055492;28;20026;-89
2023/06/22 05:55:36;;;;;;;11.82;7.70;;;;;;;;;;2057293;28;20124;-87
2023/06/22 05:56:37;;;;;;;9.45;8.55;;;;;;;;;;2059315;28;20041;-89
2023/06/22 05:57:37;;;;;;;9.52;8.60;;;;;;;;;;2059738;28;20030;-88
2023/06/22 05:58:38;;;;;;;13.25;9.07;;;;;;;;;;2060364;28;20467;-89
2023/06/22 06:00:22;;;;;;;12.68;9.00;;;;;;;;;;2048201;29;20099;-88
2023/06/22 06:01:25;;;;;;;10.43;8.52;;;;;;;;;;2055933;28;20045;-89
2023/06/22 06:02:26;;;;;;;13.18;8.38;;;;;;;;;;2053539;28;20030;-89
2023/06/22 06:03:28;;;;;;;10.18;8.48;;;;;;;;;;2045394;29;20487;-90
2023/06/22 06:04:28;;;;;;;9.27;8.48;;;;;;;;;;2053637;28;20031;-89
2023/06/22 06:05:30;;;;;;;9.90;8.90;;;;;;;;;;2054197;28;20424;-90
2023/06/22 06:06:38;;;;;;;9.43;8.43;;;;;;;;;;2054111;28;20033;-90
2023/06/22 06:07:39;;;;;;;9.93;8.80;;;;;;;;;;2053204;28;20489;-90
2023/06/22 06:08:42;;;;;;;9.45;8.57;;;;;;;;;;2053417;28;20026;-90